createdAt,value
2019-03-17T00:02:17.806Z,3.10
2019-03-17T00:04:45.104Z,3.42
2019-03-17T00:07:12.374Z,3.05
2019-03-17T00:09:39.649Z,3.30
2019-03-17T00:12:06.938Z,3.60
2019-03-17T00:14:34.212Z,3.10
2019-03-17T00:17:01.567Z,3.58
2019-03-17T00:19:28.838Z,3.70
2019-03-17T00:21:56.246Z,3.67
2019-03-17T00:24:23.538Z,3.85
2019-03-17T00:26:50.853Z,3.55
2019-03-17T00:29:18.251Z,3.02
2019-03-17T00:31:45.611Z,3.10
2019-03-17T00:34:12.902Z,3.55
2019-03-17T00:36:40.230Z,3.40
2019-03-17T00:39:07.504Z,3.20
2019-03-17T00:41:34.791Z,2.65
2019-03-17T00:44:02.130Z,3.35
2019-03-17T00:46:29.445Z,2.75
2019-03-17T00:48:56.719Z,2.90
2019-03-17T00:51:23.993Z,2.92
2019-03-17T00:53:51.373Z,2.55
2019-03-17T00:56:18.799Z,2.40
2019-03-17T00:58:46.056Z,2.70
2019-03-17T01:01:13.482Z,2.90
2019-03-17T01:03:40.886Z,2.70
2019-03-17T01:06:08.184Z,3.12
2019-03-17T01:08:35.521Z,2.67
2019-03-17T01:11:02.828Z,2.70
2019-03-17T01:13:30.093Z,3.12
2019-03-17T01:15:57.347Z,2.80
2019-03-17T01:18:25.069Z,3.55
2019-03-17T01:20:52.352Z,2.67
2019-03-17T01:23:19.651Z,2.98
2019-03-17T01:25:46.990Z,3.05
2019-03-17T01:28:14.251Z,2.70
2019-03-17T01:30:41.517Z,2.75
2019-03-17T01:33:10.765Z,3.12
2019-03-17T01:35:38.245Z,3.20
2019-03-17T01:38:05.517Z,3.70
2019-03-17T01:40:32.851Z,3.08
2019-03-17T01:43:00.150Z,3.50
2019-03-17T01:45:27.455Z,2.75
2019-03-17T01:47:55.022Z,3.37
2019-03-17T01:50:22.283Z,3.47
2019-03-17T01:52:49.562Z,3.37
2019-03-17T01:55:16.821Z,3.40
2019-03-17T01:57:44.170Z,2.80
2019-03-17T02:00:12.721Z,3.45
2019-03-17T02:02:40.001Z,3.42
2019-03-17T02:05:07.417Z,3.50
2019-03-17T02:07:34.694Z,3.62
2019-03-17T02:10:01.947Z,3.60
2019-03-17T02:12:29.229Z,3.47
2019-03-17T02:14:56.642Z,3.75
2019-03-17T02:17:23.990Z,3.37
2019-03-17T02:19:51.255Z,2.90
2019-03-17T02:22:18.535Z,3.58
2019-03-17T02:24:45.797Z,2.55
2019-03-17T02:27:13.262Z,3.58
2019-03-17T02:29:40.597Z,3.60
2019-03-17T02:32:07.888Z,4.35
2019-03-17T02:34:35.235Z,3.70
2019-03-17T02:37:02.667Z,3.72
2019-03-17T02:39:30.003Z,4.05
2019-03-17T02:41:57.295Z,4.35
2019-03-17T02:44:24.571Z,3.65
2019-03-17T02:46:51.829Z,3.27
2019-03-17T02:49:19.106Z,3.55
2019-03-17T02:51:46.380Z,3.50
2019-03-17T02:54:13.654Z,4.28
2019-03-17T02:56:40.924Z,3.50
2019-03-17T02:59:08.265Z,3.58
2019-03-17T03:01:35.530Z,4.15
2019-03-17T03:04:02.832Z,4.20
2019-03-17T03:06:30.093Z,4.08
2019-03-17T03:08:57.365Z,3.87
2019-03-17T03:11:24.661Z,3.85
2019-03-17T03:13:51.926Z,3.62
2019-03-17T03:16:19.201Z,4.03
2019-03-17T03:18:46.491Z,4.25
2019-03-17T03:21:13.772Z,3.77
2019-03-17T03:23:41.362Z,4.70
2019-03-17T03:26:08.623Z,3.75
2019-03-17T03:28:36.108Z,3.40
2019-03-17T03:31:03.462Z,4.53
2019-03-17T03:33:31.486Z,3.70
2019-03-17T03:36:09.928Z,4.08
2019-03-17T03:38:27.813Z,3.55
2019-03-17T03:40:55.068Z,4.30
2019-03-17T03:43:22.394Z,5.15
2019-03-17T03:45:49.697Z,4.55
2019-03-17T03:48:17.039Z,4.70
2019-03-17T03:50:44.298Z,3.00
2019-03-17T03:53:11.586Z,2.20
2019-03-17T03:55:42.092Z,2.50
2019-03-17T03:58:07.919Z,2.40
2019-03-17T04:00:35.209Z,0.90
2019-03-17T04:03:02.505Z,0.50
2019-03-17T04:05:32.644Z,0.47
2019-03-17T04:07:58.759Z,0.50
2019-03-17T04:10:26.032Z,0.45
2019-03-17T04:12:53.306Z,0.68
2019-03-17T04:15:20.576Z,0.70
2019-03-17T04:17:47.930Z,0.70
2019-03-17T04:20:15.249Z,0.60
2019-03-17T04:22:42.514Z,0.60
2019-03-17T04:25:11.699Z,0.80
2019-03-17T04:27:38.969Z,0.90
2019-03-17T04:30:09.905Z,0.62
2019-03-17T04:32:37.181Z,0.57
2019-03-17T04:35:05.683Z,0.40
2019-03-17T04:37:32.986Z,0.50
2019-03-17T04:40:00.620Z,0.35
2019-03-17T04:42:27.990Z,0.65
2019-03-17T04:44:55.258Z,0.53
2019-03-17T04:47:22.532Z,0.40
2019-03-17T04:49:49.784Z,0.70
2019-03-17T04:52:17.167Z,0.40
2019-03-17T04:54:44.506Z,0.45
2019-03-17T04:57:11.824Z,0.57
2019-03-17T04:59:39.202Z,0.68
2019-03-17T05:02:06.684Z,0.30
2019-03-17T05:04:33.966Z,0.40
2019-03-17T05:07:01.254Z,0.35
2019-03-17T05:09:28.523Z,0.50
2019-03-17T05:11:55.801Z,0.40
2019-03-17T05:14:23.079Z,0.35
2019-03-17T05:16:50.398Z,0.47
2019-03-17T05:19:17.670Z,0.28
2019-03-17T05:21:44.930Z,0.30
2019-03-17T05:24:12.301Z,0.40
2019-03-17T05:26:39.631Z,0.40
2019-03-17T05:29:06.962Z,0.37
2019-03-17T05:31:34.388Z,0.35
2019-03-17T05:34:01.703Z,0.20
2019-03-17T05:36:28.949Z,0.40
2019-03-17T05:38:56.234Z,0.23
2019-03-17T05:41:23.490Z,0.28
2019-03-17T05:43:50.765Z,0.33
2019-03-17T05:46:18.146Z,0.17
2019-03-17T05:48:45.725Z,0.40
2019-03-17T05:51:13.000Z,0.45
2019-03-17T05:53:40.540Z,0.33
2019-03-17T05:56:08.052Z,0.35
2019-03-17T05:58:35.412Z,0.30
2019-03-17T06:01:02.788Z,0.40
2019-03-17T06:03:30.178Z,0.57
2019-03-17T06:05:57.472Z,0.40
2019-03-17T06:08:24.756Z,0.50
2019-03-17T06:10:52.054Z,0.62
2019-03-17T06:13:19.374Z,0.55
2019-03-17T06:15:46.661Z,0.37
2019-03-17T06:18:13.922Z,0.40
2019-03-17T06:20:41.361Z,0.60
2019-03-17T06:23:08.662Z,0.70
2019-03-17T06:25:35.972Z,0.45
2019-03-17T06:28:03.246Z,0.50
2019-03-17T06:30:30.542Z,0.70
2019-03-17T06:32:57.793Z,0.40
2019-03-17T06:35:25.211Z,0.50
2019-03-17T06:37:52.549Z,0.90
2019-03-17T06:40:19.881Z,0.50
2019-03-17T06:42:47.172Z,0.90
2019-03-17T06:45:14.612Z,0.93
2019-03-17T06:47:41.873Z,1.00
2019-03-17T06:50:32.666Z,1.17
2019-03-17T06:52:59.933Z,1.22
2019-03-17T06:55:27.211Z,1.40
2019-03-17T06:57:54.535Z,1.57
2019-03-17T07:00:21.807Z,1.00
2019-03-17T07:02:49.118Z,1.45
2019-03-17T07:05:16.539Z,1.65
2019-03-17T07:07:44.851Z,1.45
2019-03-17T07:10:12.617Z,1.90
2019-03-17T07:12:39.899Z,1.30
2019-03-17T07:15:08.714Z,1.50
2019-03-17T07:17:35.977Z,2.10
2019-03-17T07:20:04.335Z,1.82
2019-03-17T07:22:31.602Z,1.70
2019-03-17T07:24:58.868Z,1.55
2019-03-17T07:27:26.147Z,0.80
2019-03-17T07:29:53.430Z,0.80
2019-03-17T07:32:20.700Z,0.60
2019-03-17T07:34:47.987Z,1.27
2019-03-17T07:37:15.339Z,0.90
2019-03-17T07:39:42.693Z,0.50
2019-03-17T07:42:09.961Z,0.60
2019-03-17T07:44:37.326Z,0.75
2019-03-17T07:47:04.616Z,0.70
2019-03-17T07:49:31.959Z,0.70
2019-03-17T07:51:59.242Z,0.80
2019-03-17T07:54:26.625Z,0.80
2019-03-17T07:56:53.890Z,0.62
2019-03-17T07:59:21.158Z,0.95
2019-03-17T08:01:48.631Z,0.62
2019-03-17T08:04:15.980Z,0.70
2019-03-17T08:06:43.258Z,0.45
2019-03-17T08:09:10.538Z,1.00
2019-03-17T08:11:37.802Z,0.80
2019-03-17T08:14:05.102Z,0.60
2019-03-17T08:16:32.462Z,0.90
2019-03-17T08:18:59.917Z,1.07
2019-03-17T08:21:27.205Z,0.50
2019-03-17T08:23:54.490Z,0.80
2019-03-17T08:26:21.855Z,0.60
2019-03-17T08:28:49.114Z,0.70
2019-03-17T08:31:16.394Z,0.50
2019-03-17T08:33:43.827Z,0.78
2019-03-17T08:36:11.178Z,0.68
2019-03-17T08:38:38.470Z,0.50
2019-03-17T08:41:05.926Z,0.40
2019-03-17T08:43:33.211Z,0.40
2019-03-17T08:46:00.476Z,0.40
2019-03-17T08:48:27.754Z,0.60
2019-03-17T08:50:55.184Z,0.50
2019-03-17T08:53:22.506Z,0.57
2019-03-17T08:55:49.968Z,0.40
2019-03-17T08:58:17.226Z,0.62
2019-03-17T09:00:44.499Z,0.95
2019-03-17T09:03:11.759Z,0.60
2019-03-17T09:05:39.040Z,0.40
2019-03-17T09:08:06.501Z,0.50
2019-03-17T09:10:33.773Z,0.85
2019-03-17T09:13:04.041Z,0.70
2019-03-17T09:15:30.033Z,0.78
2019-03-17T09:17:57.423Z,0.70
2019-03-17T09:20:24.758Z,0.40
2019-03-17T09:22:52.039Z,0.95
2019-03-17T09:25:19.324Z,0.68
2019-03-17T09:27:46.590Z,0.90
2019-03-17T09:30:17.516Z,1.10
2019-03-17T09:32:44.770Z,0.95
2019-03-17T09:35:12.041Z,1.65
2019-03-17T09:37:39.392Z,1.10
2019-03-17T09:40:16.516Z,1.32
2019-03-17T09:42:44.047Z,0.82
2019-03-17T09:45:12.079Z,1.10
2019-03-17T09:47:41.111Z,1.20
2019-03-17T09:50:15.662Z,0.98
2019-03-17T09:52:43.017Z,1.17
2019-03-17T09:55:10.292Z,1.27
2019-03-17T09:57:37.691Z,0.90
2019-03-17T10:00:21.069Z,0.90
2019-03-17T10:02:48.415Z,1.32
2019-03-17T10:05:15.668Z,1.05
2019-03-17T10:07:42.977Z,1.17
2019-03-17T10:10:11.503Z,1.15
2019-03-17T10:12:38.780Z,0.88
2019-03-17T10:15:07.594Z,0.72
2019-03-17T10:17:34.852Z,1.22
2019-03-17T10:20:02.126Z,0.80
2019-03-17T10:22:29.389Z,0.68
2019-03-17T10:24:56.700Z,0.95
2019-03-17T10:27:24.069Z,0.60
2019-03-17T10:29:51.365Z,0.80
2019-03-17T10:32:18.622Z,0.90
2019-03-17T10:34:45.911Z,0.70
2019-03-17T10:37:13.187Z,1.47
2019-03-17T10:39:40.532Z,0.60
2019-03-17T10:42:07.787Z,0.50
2019-03-17T10:44:35.087Z,1.10
2019-03-17T10:47:03.249Z,1.25
2019-03-17T10:49:30.525Z,0.88
2019-03-17T10:51:57.798Z,0.90
2019-03-17T10:54:25.068Z,1.00
2019-03-17T10:56:52.368Z,0.50
2019-03-17T10:59:19.803Z,0.80
2019-03-17T11:01:47.246Z,0.95
2019-03-17T11:04:14.586Z,0.85
2019-03-17T11:06:41.862Z,0.90
2019-03-17T11:09:09.254Z,0.80
2019-03-17T11:11:36.518Z,0.70
2019-03-17T11:14:03.876Z,0.78
2019-03-17T11:16:31.166Z,0.90
2019-03-17T11:18:59.048Z,0.40
2019-03-17T11:21:26.351Z,0.72
2019-03-17T11:23:53.638Z,0.55
2019-03-17T11:26:20.963Z,0.80
2019-03-17T11:28:48.422Z,0.53
2019-03-17T11:31:15.694Z,1.12
2019-03-17T11:33:42.971Z,1.22
2019-03-17T11:36:10.246Z,0.95
2019-03-17T11:38:37.576Z,1.22
2019-03-17T11:41:05.122Z,0.70
2019-03-17T11:43:32.428Z,0.90
2019-03-17T11:45:59.763Z,0.70
2019-03-17T11:48:27.045Z,0.90
2019-03-17T11:50:54.338Z,0.60
2019-03-17T11:53:21.704Z,1.02
2019-03-17T11:55:49.063Z,1.12
2019-03-17T11:58:16.318Z,1.00
2019-03-17T12:00:43.633Z,1.10
2019-03-17T12:03:10.910Z,1.40
2019-03-17T12:05:38.254Z,1.22
2019-03-17T12:08:05.590Z,1.00
2019-03-17T12:10:32.872Z,1.27
2019-03-17T12:13:00.145Z,0.70
2019-03-17T12:15:28.593Z,1.10
2019-03-17T12:17:55.878Z,0.90
2019-03-17T12:20:23.243Z,0.82
2019-03-17T12:22:50.604Z,0.88
2019-03-17T12:25:18.353Z,0.75
2019-03-17T12:27:45.869Z,0.88
2019-03-17T12:30:19.769Z,1.00
2019-03-17T12:32:47.595Z,0.55
2019-03-17T12:35:15.119Z,0.70
2019-03-17T12:37:42.375Z,0.72
2019-03-17T12:40:09.660Z,0.60
2019-03-17T12:42:36.948Z,0.78
2019-03-17T12:45:05.841Z,0.72
2019-03-17T12:47:33.103Z,0.82
2019-03-17T12:50:00.417Z,1.00
2019-03-17T12:52:27.803Z,1.00
2019-03-17T12:54:55.068Z,0.80
2019-03-17T12:57:22.365Z,0.80
2019-03-17T12:59:49.630Z,0.70
2019-03-17T13:02:16.888Z,0.93
2019-03-17T13:04:44.470Z,0.62
2019-03-17T13:07:11.791Z,1.02
2019-03-17T13:09:39.307Z,0.50
2019-03-17T13:12:06.595Z,0.85
2019-03-17T13:14:33.849Z,0.80
2019-03-17T13:17:01.118Z,0.80
2019-03-17T13:19:28.402Z,0.88
2019-03-17T13:21:55.682Z,0.93
2019-03-17T13:24:22.968Z,0.85
2019-03-17T13:26:50.512Z,1.02
2019-03-17T13:29:18.194Z,0.80
2019-03-17T13:31:45.505Z,1.20
2019-03-17T13:34:13.139Z,1.20
2019-03-17T13:36:40.396Z,1.00
2019-03-17T13:39:07.669Z,1.22
2019-03-17T13:41:35.266Z,0.82
2019-03-17T13:44:02.514Z,1.57
2019-03-17T13:46:29.789Z,1.20
2019-03-17T13:48:57.152Z,1.12
2019-03-17T13:51:24.422Z,1.25
2019-03-17T13:53:51.686Z,0.90
2019-03-17T13:56:19.090Z,0.70
2019-03-17T13:58:46.346Z,1.25
2019-03-17T14:01:13.643Z,0.70
2019-03-17T14:03:40.954Z,0.80
2019-03-17T14:06:08.341Z,0.70
2019-03-17T14:08:35.631Z,0.80
2019-03-17T14:11:02.904Z,0.80
2019-03-17T14:13:30.378Z,0.80
2019-03-17T14:15:57.634Z,0.95
2019-03-17T14:18:25.026Z,0.85
2019-03-17T14:20:52.286Z,1.00
2019-03-17T14:23:19.581Z,1.10
2019-03-17T14:25:47.126Z,1.05
2019-03-17T14:28:14.604Z,0.75
2019-03-17T14:30:41.877Z,0.60
2019-03-17T14:33:09.157Z,0.95
2019-03-17T14:35:36.579Z,0.80
2019-03-17T14:38:03.918Z,1.00
2019-03-17T14:40:31.212Z,0.80
2019-03-17T14:42:58.469Z,1.00
2019-03-17T14:45:25.723Z,1.35
2019-03-17T14:47:53.159Z,1.15
2019-03-17T14:50:21.972Z,0.80
2019-03-17T14:52:49.260Z,0.95
2019-03-17T14:55:16.578Z,0.93
2019-03-17T14:57:43.861Z,0.98
2019-03-17T15:00:15.649Z,1.20
2019-03-17T15:02:42.938Z,0.78
2019-03-17T15:05:10.465Z,0.90
2019-03-17T15:07:37.745Z,0.70
2019-03-17T15:10:06.540Z,0.70
2019-03-17T15:12:33.825Z,1.35
2019-03-17T15:15:01.081Z,0.80
2019-03-17T15:17:28.429Z,0.75
2019-03-17T15:19:55.681Z,0.85
2019-03-17T15:22:22.979Z,0.72
2019-03-17T15:24:50.257Z,0.95
2019-03-17T15:27:17.886Z,1.07
2019-03-17T15:29:45.167Z,0.90
2019-03-17T15:32:12.458Z,0.70
2019-03-17T15:34:41.254Z,0.90
2019-03-17T15:37:08.698Z,1.17
2019-03-17T15:39:35.990Z,1.10
2019-03-17T15:42:03.275Z,0.82
2019-03-17T15:44:30.564Z,1.32
2019-03-17T15:46:57.890Z,0.82
2019-03-17T15:49:25.386Z,0.68
2019-03-17T15:51:52.656Z,0.68
2019-03-17T15:54:21.527Z,0.80
2019-03-17T15:56:49.097Z,0.90
2019-03-17T15:59:16.673Z,1.20
2019-03-17T16:01:44.025Z,0.90
2019-03-17T16:04:11.617Z,1.12
2019-03-17T16:06:38.939Z,0.90
2019-03-17T16:09:07.013Z,0.82
2019-03-17T16:11:34.498Z,0.88
2019-03-17T16:14:01.753Z,0.95
2019-03-17T16:16:29.337Z,0.80
2019-03-17T16:18:56.653Z,0.80
2019-03-17T16:21:23.931Z,0.93
2019-03-17T16:23:51.237Z,0.60
2019-03-17T16:26:18.881Z,0.62
2019-03-17T16:28:46.189Z,0.85
2019-03-17T16:31:13.456Z,0.70
2019-03-17T16:33:41.009Z,0.55
2019-03-17T16:36:08.279Z,0.70
2019-03-17T16:38:35.566Z,0.80
2019-03-17T16:41:02.833Z,0.65
2019-03-17T16:43:30.133Z,0.90
2019-03-17T16:45:57.403Z,1.02
2019-03-17T16:48:24.792Z,0.72
2019-03-17T16:50:52.117Z,0.82
2019-03-17T16:53:19.390Z,0.75
2019-03-17T16:55:46.638Z,1.07
2019-03-17T16:58:13.910Z,1.15
2019-03-17T17:00:41.272Z,1.00
2019-03-17T17:03:08.529Z,0.88
2019-03-17T17:05:35.882Z,1.10
2019-03-17T17:08:03.159Z,0.60
2019-03-17T17:10:30.935Z,1.02
2019-03-17T17:12:58.312Z,2.92
2019-03-17T17:15:26.094Z,4.37
2019-03-17T17:17:53.351Z,2.55
2019-03-17T17:20:21.790Z,3.80
2019-03-17T17:22:49.144Z,1.60
2019-03-17T17:25:25.297Z,1.65
2019-03-17T17:27:53.112Z,4.28
2019-03-17T17:30:20.502Z,1.50
2019-03-17T17:32:47.835Z,3.83
2019-03-17T17:35:15.177Z,2.05
2019-03-17T17:37:42.703Z,1.22
2019-03-17T17:40:11.515Z,0.60
2019-03-17T17:42:38.781Z,0.95
2019-03-17T17:45:07.598Z,1.02
2019-03-17T17:47:34.908Z,0.70
2019-03-17T17:50:02.195Z,1.15
2019-03-17T17:52:29.471Z,1.10
2019-03-17T17:54:56.746Z,0.72
2019-03-17T17:57:24.010Z,1.10
2019-03-17T17:59:51.299Z,1.37
2019-03-17T18:02:18.550Z,0.93
2019-03-17T18:04:45.818Z,1.00
2019-03-17T18:07:13.096Z,1.10
2019-03-17T18:09:40.440Z,0.80
2019-03-17T18:12:07.732Z,1.40
2019-03-17T18:14:34.986Z,2.00
2019-03-17T18:17:02.277Z,1.40
2019-03-17T18:19:30.272Z,1.27
2019-03-17T18:21:57.560Z,1.60
2019-03-17T18:24:24.818Z,1.17
2019-03-17T18:26:52.099Z,1.22
2019-03-17T18:29:19.418Z,1.30
2019-03-17T18:31:46.694Z,1.05
2019-03-17T18:34:13.999Z,0.80
2019-03-17T18:36:41.517Z,1.02
2019-03-17T18:39:08.876Z,0.80
2019-03-17T18:41:36.150Z,0.98
2019-03-17T18:44:03.409Z,0.85
2019-03-17T18:46:30.692Z,1.35
2019-03-17T18:48:57.984Z,1.00
2019-03-17T18:51:25.397Z,1.10
2019-03-17T18:53:52.982Z,1.95
2019-03-17T18:56:20.257Z,1.47
2019-03-17T18:58:47.534Z,1.62
2019-03-17T19:01:14.806Z,2.00
2019-03-17T19:03:42.061Z,0.85
2019-03-17T19:06:09.339Z,0.80
2019-03-17T19:08:36.609Z,0.98
2019-03-17T19:11:03.933Z,1.05
2019-03-17T19:13:31.202Z,0.82
2019-03-17T19:15:58.603Z,0.88
2019-03-17T19:18:25.893Z,0.93
2019-03-17T19:20:53.186Z,1.32
2019-03-17T19:23:20.665Z,1.15
2019-03-17T19:25:47.964Z,0.72
2019-03-17T19:28:15.225Z,0.75
2019-03-17T19:30:42.493Z,0.65
2019-03-17T19:33:09.770Z,0.90
2019-03-17T19:35:37.030Z,1.30
2019-03-17T19:38:04.286Z,1.00
2019-03-17T19:40:31.576Z,0.65
2019-03-17T19:42:59.859Z,0.82
2019-03-17T19:45:27.486Z,0.47
2019-03-17T19:47:54.740Z,0.90
2019-03-17T19:50:22.289Z,2.00
2019-03-17T19:52:49.546Z,0.75
2019-03-17T19:55:16.841Z,1.15
2019-03-17T19:57:44.100Z,1.02
2019-03-17T20:00:13.002Z,0.45
2019-03-17T20:02:40.267Z,0.93
2019-03-17T20:05:07.627Z,0.60
2019-03-17T20:07:34.885Z,0.70
2019-03-17T20:10:02.158Z,0.55
2019-03-17T20:12:29.433Z,0.70
2019-03-17T20:14:56.721Z,0.85
2019-03-17T20:17:23.981Z,0.85
2019-03-17T20:19:51.243Z,0.40
2019-03-17T20:22:18.509Z,0.70
2019-03-17T20:24:45.762Z,0.88
2019-03-17T20:27:13.063Z,0.90
2019-03-17T20:29:40.330Z,1.02
2019-03-17T20:32:07.600Z,0.80
2019-03-17T20:34:35.734Z,0.60
2019-03-17T20:37:03.377Z,0.78
2019-03-17T20:39:30.642Z,0.90
2019-03-17T20:41:57.899Z,0.80
2019-03-17T20:44:25.173Z,0.90
2019-03-17T20:46:52.582Z,0.95
2019-03-17T20:49:20.062Z,0.80
2019-03-17T20:51:47.319Z,1.02
2019-03-17T20:54:14.587Z,1.32
2019-03-17T20:56:41.929Z,1.40
2019-03-17T20:59:09.396Z,1.00
2019-03-17T21:01:36.834Z,1.00
2019-03-17T21:04:04.161Z,1.37
2019-03-17T21:06:31.457Z,1.30
2019-03-17T21:08:58.719Z,1.35
2019-03-17T21:11:25.986Z,1.00
2019-03-17T21:13:53.264Z,1.00
2019-03-17T21:16:20.534Z,1.45
2019-03-17T21:18:47.807Z,0.95
2019-03-17T21:21:15.274Z,1.27
2019-03-17T21:23:42.549Z,1.12
2019-03-17T21:26:09.818Z,0.90
2019-03-17T21:28:37.121Z,1.30
2019-03-17T21:31:04.382Z,0.85
2019-03-17T21:33:31.659Z,1.00
2019-03-17T21:35:58.919Z,1.27
2019-03-17T21:38:26.187Z,1.32
2019-03-17T21:41:06.621Z,1.10
2019-03-17T21:43:22.449Z,0.98
2019-03-17T21:45:49.719Z,1.10
2019-03-17T21:48:16.999Z,1.35
2019-03-17T21:50:45.199Z,0.85
2019-03-17T21:53:12.472Z,1.40
2019-03-17T21:55:39.734Z,1.25
2019-03-17T21:58:08.044Z,1.20
2019-03-17T22:00:35.745Z,0.85
2019-03-17T22:03:03.033Z,1.15
2019-03-17T22:05:30.293Z,1.05
2019-03-17T22:07:57.679Z,1.15
2019-03-17T22:10:24.962Z,1.25
2019-03-17T22:12:52.230Z,1.10
2019-03-17T22:15:19.503Z,0.93
2019-03-17T22:17:46.766Z,1.25
2019-03-17T22:20:14.621Z,1.12
2019-03-17T22:22:42.058Z,1.05
2019-03-17T22:25:10.015Z,1.40
2019-03-17T22:27:37.305Z,1.20
2019-03-17T22:30:06.126Z,1.12
2019-03-17T22:32:33.471Z,1.00
2019-03-17T22:35:00.749Z,0.95
2019-03-17T22:37:28.016Z,0.60
2019-03-17T22:39:55.291Z,0.60
2019-03-17T22:42:22.577Z,1.02
2019-03-17T22:44:49.919Z,1.30
2019-03-17T22:47:17.308Z,0.82
2019-03-17T22:49:44.938Z,0.95
2019-03-17T22:52:12.245Z,0.62
2019-03-17T22:54:39.497Z,1.32
2019-03-17T22:57:06.948Z,1.05
2019-03-17T22:59:34.218Z,1.20
2019-03-17T23:02:01.480Z,1.00
2019-03-17T23:04:28.770Z,1.25
2019-03-17T23:06:56.190Z,1.27
2019-03-17T23:09:23.479Z,1.07
2019-03-17T23:11:50.733Z,1.02
2019-03-17T23:14:18.153Z,1.02
2019-03-17T23:16:45.411Z,0.98
2019-03-17T23:19:12.701Z,0.93
2019-03-17T23:21:40.037Z,1.32
2019-03-17T23:24:07.387Z,1.15
2019-03-17T23:26:34.752Z,0.65
2019-03-17T23:29:02.011Z,0.90
2019-03-17T23:31:29.362Z,1.10
2019-03-17T23:33:56.654Z,1.12
2019-03-17T23:36:23.919Z,0.80
2019-03-17T23:38:51.201Z,0.80
2019-03-17T23:41:18.546Z,1.20
2019-03-17T23:43:45.817Z,0.72
2019-03-17T23:46:13.076Z,0.80
2019-03-17T23:48:40.361Z,0.93
2019-03-17T23:51:07.610Z,1.10
2019-03-17T23:53:34.897Z,0.57
2019-03-17T23:56:02.176Z,1.10
2019-03-17T23:58:29.454Z,1.20
